Time;durP1;ratioP1;P1;durP2;ratioP2;P2;SDS_P1;SDS_P2;PMS_P1;PMS_P2;Temp;Humidity;BMP_temperature;BMP_pressure;BME280_temperature;BME280_humidity;BME280_pressure;Samples;Min_cycle;Max_cycle;Signal;HPM_P1;HPM_P2
2021/11/05 00:00:59;;;;;;;19.80;12.20;;;;;;;;;;5010251;28;20166;-76
2021/11/05 00:03:25;;;;;;;17.57;10.50;;;;;;;;;;5011085;28;20155;-71
2021/11/05 00:05:52;;;;;;;13.90;9.00;;;;;;;;;;5020455;28;20190;-75
2021/11/05 00:08:17;;;;;;;13.57;9.03;;;;;;;;;;5026713;28;20204;-67
2021/11/05 00:10:43;;;;;;;15.13;9.10;;;;;;;;;;5027266;28;20455;-76
2021/11/05 00:13:09;;;;;;;24.43;9.80;;;;;;;;;;5015916;28;20629;-71
2021/11/05 00:15:35;;;;;;;17.80;9.57;;;;;;;;;;5015164;28;20588;-73
2021/11/05 00:18:00;;;;;;;13.20;9.00;;;;;;;;;;5016883;28;20461;-67
2021/11/05 00:20:27;;;;;;;16.90;8.90;;;;;;;;;;5010931;28;20645;-71
2021/11/05 00:22:52;;;;;;;17.40;9.27;;;;;;;;;;5022759;28;20166;-67
2021/11/05 00:25:18;;;;;;;18.70;9.80;;;;;;;;;;5016954;28;20405;-71
2021/11/05 00:27:44;;;;;;;17.00;10.40;;;;;;;;;;5026058;28;20173;-68
2021/11/05 00:30:11;;;;;;;18.53;10.43;;;;;;;;;;5021403;28;20409;-75
2021/11/05 00:32:37;;;;;;;22.47;11.57;;;;;;;;;;5009673;28;20174;-74
2021/11/05 00:35:02;;;;;;;16.27;9.53;;;;;;;;;;5009772;28;20397;-74
2021/11/05 00:37:28;;;;;;;18.43;10.60;;;;;;;;;;5009195;28;20464;-75
2021/11/05 00:39:53;;;;;;;19.10;10.00;;;;;;;;;;5011192;28;20194;-75
2021/11/05 00:42:19;;;;;;;19.90;9.80;;;;;;;;;;5010843;28;20637;-72
2021/11/05 00:44:44;;;;;;;18.27;10.00;;;;;;;;;;5019855;28;20250;-68
2021/11/05 00:47:10;;;;;;;16.93;10.67;;;;;;;;;;5018495;28;20249;-75
2021/11/05 00:49:35;;;;;;;17.73;11.27;;;;;;;;;;5021584;28;20261;-75
2021/11/05 00:52:01;;;;;;;20.57;10.20;;;;;;;;;;5027764;28;20170;-73
2021/11/05 00:54:26;;;;;;;20.00;10.63;;;;;;;;;;5009004;28;20228;-65
2021/11/05 00:56:51;;;;;;;20.17;10.50;;;;;;;;;;5023502;28;20197;-65
2021/11/05 00:59:17;;;;;;;17.57;11.20;;;;;;;;;;5021769;28;20165;-71
2021/11/05 01:01:42;;;;;;;22.63;11.30;;;;;;;;;;5015638;28;20158;-66
2021/11/05 01:04:07;;;;;;;16.47;9.73;;;;;;;;;;5017020;28;20253;-73
2021/11/05 01:06:33;;;;;;;18.80;10.20;;;;;;;;;;5015494;28;20169;-75
2021/11/05 01:08:58;;;;;;;20.40;10.63;;;;;;;;;;5028087;28;20219;-65
2021/11/05 01:11:23;;;;;;;14.97;10.27;;;;;;;;;;5026748;28;20195;-72
2021/11/05 01:13:49;;;;;;;18.57;10.53;;;;;;;;;;5019623;28;20166;-72
2021/11/05 01:16:14;;;;;;;19.73;9.60;;;;;;;;;;5009066;28;20158;-67
2021/11/05 01:18:39;;;;;;;12.27;8.90;;;;;;;;;;5007733;28;20288;-70
2021/11/05 01:21:05;;;;;;;18.17;8.43;;;;;;;;;;5009645;28;20210;-75
2021/11/05 01:23:30;;;;;;;18.20;9.57;;;;;;;;;;5019505;28;20177;-74
2021/11/05 01:25:56;;;;;;;19.57;9.80;;;;;;;;;;5024811;28;20161;-66
2021/11/05 01:28:21;;;;;;;14.67;10.13;;;;;;;;;;5011276;28;20182;-67
2021/11/05 01:30:47;;;;;;;25.33;9.23;;;;;;;;;;5017926;28;20196;-77
2021/11/05 01:33:12;;;;;;;14.43;9.50;;;;;;;;;;5017573;28;20167;-70
2021/11/05 01:35:38;;;;;;;17.00;10.33;;;;;;;;;;5011613;28;20172;-76
2021/11/05 01:38:06;;;;;;;20.77;9.63;;;;;;;;;;4983337;28;1216567;-70
2021/11/05 01:40:33;;;;;;;20.67;11.07;;;;;;;;;;5018820;28;20405;-74
2021/11/05 01:43:01;;;;;;;14.93;8.83;;;;;;;;;;5016388;28;20416;-73
2021/11/05 01:45:27;;;;;;;14.37;8.23;;;;;;;;;;5009554;28;20408;-65
2021/11/05 01:47:52;;;;;;;17.27;10.17;;;;;;;;;;5023601;28;20551;-65
2021/11/05 01:50:18;;;;;;;16.33;8.93;;;;;;;;;;5026117;28;21041;-74
2021/11/05 01:52:43;;;;;;;18.80;8.83;;;;;;;;;;5008611;28;20265;-73
2021/11/05 01:55:10;;;;;;;16.30;9.53;;;;;;;;;;5014336;28;20254;-73
2021/11/05 01:57:35;;;;;;;18.97;10.80;;;;;;;;;;5019682;28;20196;-67
2021/11/05 02:00:01;;;;;;;21.90;9.13;;;;;;;;;;5022363;28;20424;-73
2021/11/05 02:02:26;;;;;;;15.07;8.47;;;;;;;;;;5014869;28;20207;-69
2021/11/05 02:04:51;;;;;;;15.83;9.80;;;;;;;;;;5020983;28;20161;-73
2021/11/05 02:07:17;;;;;;;15.80;9.20;;;;;;;;;;5010773;28;20711;-64
2021/11/05 02:09:43;;;;;;;18.13;9.03;;;;;;;;;;5025354;28;20162;-73
2021/11/05 02:12:08;;;;;;;15.37;9.50;;;;;;;;;;5011371;28;20205;-66
2021/11/05 02:14:34;;;;;;;15.80;9.20;;;;;;;;;;5019560;28;21021;-69
2021/11/05 02:17:01;;;;;;;17.07;9.77;;;;;;;;;;5025468;28;20197;-72
2021/11/05 02:19:28;;;;;;;15.10;9.70;;;;;;;;;;5025561;28;20989;-65
2021/11/05 02:21:54;;;;;;;19.33;9.63;;;;;;;;;;5019374;28;20475;-73
2021/11/05 02:24:20;;;;;;;19.20;11.13;;;;;;;;;;5015452;28;20417;-70
2021/11/05 02:26:45;;;;;;;16.10;10.13;;;;;;;;;;5008993;28;20408;-68
2021/11/05 02:29:11;;;;;;;19.53;10.60;;;;;;;;;;5026690;28;20487;-68
2021/11/05 02:31:37;;;;;;;19.10;10.00;;;;;;;;;;5023778;28;20643;-67
2021/11/05 02:34:02;;;;;;;17.70;10.27;;;;;;;;;;5009917;28;20405;-63
2021/11/05 02:36:28;;;;;;;15.90;10.87;;;;;;;;;;5023915;28;20177;-68
2021/11/05 02:38:53;;;;;;;21.83;9.90;;;;;;;;;;5029933;28;20229;-71
2021/11/05 02:41:22;;;;;;;16.97;10.10;;;;;;;;;;5017891;28;20249;-70
2021/11/05 02:43:48;;;;;;;23.43;11.20;;;;;;;;;;5030456;28;20236;-67
2021/11/05 02:46:13;;;;;;;20.40;9.60;;;;;;;;;;5017043;28;20451;-77
2021/11/05 02:48:39;;;;;;;17.20;10.43;;;;;;;;;;5014923;28;21013;-70
2021/11/05 02:51:04;;;;;;;18.57;9.80;;;;;;;;;;5011709;28;20159;-67
2021/11/05 02:53:29;;;;;;;20.20;10.60;;;;;;;;;;5010222;28;20198;-72
2021/11/05 02:55:55;;;;;;;17.00;9.80;;;;;;;;;;5018538;28;20189;-73
2021/11/05 02:58:20;;;;;;;18.13;11.03;;;;;;;;;;5024132;28;20193;-77
2021/11/05 03:00:45;;;;;;;20.03;9.60;;;;;;;;;;5030275;28;20161;-68
2021/11/05 03:03:14;;;;;;;15.63;11.00;;;;;;;;;;5030834;28;20226;-76
2021/11/05 03:05:39;;;;;;;18.43;10.10;;;;;;;;;;5029114;28;20535;-77
2021/11/05 03:08:05;;;;;;;15.10;9.27;;;;;;;;;;5030928;28;20466;-74
2021/11/05 03:10:30;;;;;;;21.60;10.27;;;;;;;;;;5026408;28;20159;-74
2021/11/05 03:12:55;;;;;;;17.40;10.40;;;;;;;;;;5015324;28;20212;-73
2021/11/05 03:15:21;;;;;;;21.57;11.13;;;;;;;;;;5026046;28;20157;-72
2021/11/05 03:17:46;;;;;;;21.77;10.67;;;;;;;;;;5029802;28;20687;-76
2021/11/05 03:20:12;;;;;;;23.53;10.60;;;;;;;;;;5030198;28;20702;-76
2021/11/05 03:22:37;;;;;;;19.90;11.27;;;;;;;;;;5023086;28;20594;-75
2021/11/05 03:25:03;;;;;;;21.17;11.40;;;;;;;;;;5025908;28;20413;-74
2021/11/05 03:27:28;;;;;;;20.40;9.77;;;;;;;;;;5024549;28;20158;-74
2021/11/05 03:29:54;;;;;;;20.57;11.13;;;;;;;;;;5024022;28;20216;-69
2021/11/05 03:32:19;;;;;;;20.60;11.87;;;;;;;;;;5021171;28;20174;-76
2021/11/05 03:34:44;;;;;;;20.50;11.93;;;;;;;;;;5020870;28;20895;-73
2021/11/05 03:37:10;;;;;;;16.27;10.47;;;;;;;;;;5010865;28;20285;-73
2021/11/05 03:39:35;;;;;;;23.93;12.40;;;;;;;;;;5011057;28;20646;-74
2021/11/05 03:42:02;;;;;;;18.67;10.83;;;;;;;;;;5020667;28;20699;-75
2021/11/05 03:44:28;;;;;;;19.90;12.40;;;;;;;;;;5014732;28;20174;-77
2021/11/05 03:46:53;;;;;;;15.47;10.63;;;;;;;;;;5012325;28;20445;-65
2021/11/05 03:49:18;;;;;;;21.60;11.50;;;;;;;;;;5023530;28;20400;-69
2021/11/05 03:51:44;;;;;;;20.10;12.07;;;;;;;;;;5017687;28;20714;-74
2021/11/05 03:54:09;;;;;;;21.20;13.23;;;;;;;;;;5008355;28;20186;-74
2021/11/05 03:56:35;;;;;;;20.63;12.70;;;;;;;;;;5014020;28;20500;-72
2021/11/05 03:59:00;;;;;;;20.63;13.00;;;;;;;;;;5023365;28;20201;-76
2021/11/05 04:01:26;;;;;;;20.30;12.87;;;;;;;;;;5018859;28;20189;-70
2021/11/05 04:03:51;;;;;;;23.90;11.73;;;;;;;;;;5028892;28;20169;-76
2021/11/05 04:06:18;;;;;;;20.90;11.70;;;;;;;;;;5026466;28;20170;-70
2021/11/05 04:08:43;;;;;;;23.23;12.87;;;;;;;;;;5012041;28;20198;-67
2021/11/05 04:11:08;;;;;;;21.90;13.43;;;;;;;;;;5018069;28;20400;-77
2021/11/05 04:13:34;;;;;;;24.97;13.73;;;;;;;;;;5029977;28;20300;-70
2021/11/05 04:15:59;;;;;;;27.80;13.17;;;;;;;;;;5017261;28;20164;-73
2021/11/05 04:18:24;;;;;;;22.00;12.73;;;;;;;;;;5029251;28;20194;-66
2021/11/05 04:20:50;;;;;;;24.37;13.07;;;;;;;;;;5024953;28;20671;-73
2021/11/05 04:23:17;;;;;;;21.47;12.63;;;;;;;;;;5025892;28;20747;-72
2021/11/05 04:25:43;;;;;;;20.97;12.83;;;;;;;;;;5013517;28;20154;-74
2021/11/05 04:28:08;;;;;;;26.23;13.43;;;;;;;;;;5013670;28;20464;-75
2021/11/05 04:30:33;;;;;;;28.63;12.93;;;;;;;;;;5013643;28;20264;-71
2021/11/05 04:32:59;;;;;;;23.80;13.87;;;;;;;;;;5023715;28;20165;-72
2021/11/05 04:35:24;;;;;;;26.47;13.97;;;;;;;;;;5028608;28;20162;-69
2021/11/05 04:37:49;;;;;;;19.90;12.80;;;;;;;;;;5023760;28;20229;-76
2021/11/05 04:40:15;;;;;;;26.50;15.20;;;;;;;;;;5026548;28;20162;-68
2021/11/05 04:42:40;;;;;;;25.00;14.53;;;;;;;;;;5028045;28;20203;-72
2021/11/05 04:45:06;;;;;;;22.57;13.87;;;;;;;;;;5014344;28;20162;-69
2021/11/05 04:47:31;;;;;;;23.57;14.40;;;;;;;;;;5027257;28;20176;-69
2021/11/05 04:49:56;;;;;;;26.63;14.87;;;;;;;;;;5019861;28;20644;-70
2021/11/05 04:52:22;;;;;;;24.30;14.93;;;;;;;;;;5027060;28;20177;-69
2021/11/05 04:54:47;;;;;;;26.40;14.40;;;;;;;;;;5015816;28;20603;-72
2021/11/05 04:57:13;;;;;;;25.70;14.37;;;;;;;;;;5009738;28;20212;-69
2021/11/05 04:59:38;;;;;;;22.73;14.67;;;;;;;;;;5014259;28;20255;-74
2021/11/05 05:02:04;;;;;;;25.17;14.27;;;;;;;;;;5020147;28;20166;-76
2021/11/05 05:04:30;;;;;;;25.73;15.60;;;;;;;;;;5028768;28;20157;-72
2021/11/05 05:06:55;;;;;;;24.73;16.10;;;;;;;;;;5028224;28;20252;-65
2021/11/05 05:09:20;;;;;;;29.20;14.83;;;;;;;;;;5028728;28;20170;-73
2021/11/05 05:11:46;;;;;;;27.57;14.17;;;;;;;;;;5026998;28;20680;-69
2021/11/05 05:14:15;;;;;;;20.97;14.17;;;;;;;;;;5028491;28;20680;-74
2021/11/05 05:16:40;;;;;;;19.10;13.87;;;;;;;;;;5018094;28;20166;-76
2021/11/05 05:19:06;;;;;;;20.80;15.60;;;;;;;;;;5008616;28;20477;-76
2021/11/05 05:21:31;;;;;;;25.10;14.63;;;;;;;;;;5026196;28;20177;-69
2021/11/05 05:23:56;;;;;;;23.43;13.90;;;;;;;;;;5023819;28;20177;-68
2021/11/05 05:26:23;;;;;;;28.57;15.33;;;;;;;;;;5027247;28;20241;-76
2021/11/05 05:28:48;;;;;;;22.43;13.50;;;;;;;;;;5014468;28;20515;-71
2021/11/05 05:31:13;;;;;;;24.87;13.73;;;;;;;;;;5028202;28;20243;-73
2021/11/05 05:33:39;;;;;;;24.23;14.60;;;;;;;;;;5031063;28;20154;-76
2021/11/05 05:36:06;;;;;;;27.03;15.40;;;;;;;;;;5023330;28;20189;-72
2021/11/05 05:38:31;;;;;;;31.40;17.83;;;;;;;;;;5009683;28;20280;-75
2021/11/05 05:40:57;;;;;;;29.10;15.73;;;;;;;;;;5011714;28;21046;-81
2021/11/05 05:43:22;;;;;;;30.43;14.90;;;;;;;;;;5022364;28;20162;-68
2021/11/05 05:45:47;;;;;;;28.43;15.17;;;;;;;;;;5021731;28;20705;-73
2021/11/05 05:48:13;;;;;;;30.70;15.77;;;;;;;;;;5017203;28;20156;-73
2021/11/05 05:50:38;;;;;;;34.33;16.13;;;;;;;;;;5029779;28;20204;-74
2021/11/05 05:53:03;;;;;;;31.73;18.53;;;;;;;;;;5029928;28;20170;-71
2021/11/05 05:55:29;;;;;;;24.40;15.90;;;;;;;;;;5029446;28;20590;-67
2021/11/05 05:57:54;;;;;;;19.60;13.90;;;;;;;;;;5030320;28;20204;-72
2021/11/05 06:00:19;;;;;;;35.27;15.67;;;;;;;;;;5027399;28;20150;-70
2021/11/05 06:02:46;;;;;;;31.23;14.93;;;;;;;;;;5016661;28;20637;-69
2021/11/05 06:05:11;;;;;;;24.90;13.43;;;;;;;;;;5010377;28;20150;-68
2021/11/05 06:07:37;;;;;;;31.37;18.37;;;;;;;;;;5021522;28;20405;-67
2021/11/05 06:10:03;;;;;;;29.60;17.70;;;;;;;;;;5012500;28;20185;-63
2021/11/05 06:12:29;;;;;;;25.73;15.40;;;;;;;;;;5028467;28;20165;-70
2021/11/05 06:14:54;;;;;;;28.23;15.20;;;;;;;;;;5047870;28;20409;-74
2021/11/05 06:17:19;;;;;;;22.80;14.47;;;;;;;;;;5032279;28;20193;-74
2021/11/05 06:20:09;;;;;;;19.70;10.80;;;;;;;;;;5032561;28;20622;-76
2021/11/05 06:22:34;;;;;;;17.70;10.17;;;;;;;;;;5015915;28;20178;-69
2021/11/05 06:25:03;;;;;;;15.87;9.90;;;;;;;;;;5021269;28;20427;-68
2021/11/05 06:27:29;;;;;;;18.27;10.23;;;;;;;;;;5021735;28;20254;-69
2021/11/05 06:29:55;;;;;;;16.90;11.00;;;;;;;;;;5015425;28;20437;-71
2021/11/05 06:32:20;;;;;;;19.67;10.73;;;;;;;;;;5016359;28;20207;-73
2021/11/05 06:34:45;;;;;;;13.83;9.43;;;;;;;;;;5024802;28;20660;-72
2021/11/05 06:37:11;;;;;;;16.97;9.07;;;;;;;;;;5030053;28;20224;-68
2021/11/05 06:39:36;;;;;;;14.53;8.60;;;;;;;;;;5022877;28;20162;-62
2021/11/05 06:42:02;;;;;;;17.17;9.60;;;;;;;;;;5015956;28;20235;-70
2021/11/05 06:44:27;;;;;;;16.43;8.43;;;;;;;;;;5028071;28;20166;-67
2021/11/05 06:46:53;;;;;;;14.60;7.50;;;;;;;;;;5013898;28;20178;-69
2021/11/05 06:49:18;;;;;;;15.57;8.33;;;;;;;;;;5012679;28;20186;-62
2021/11/05 06:51:44;;;;;;;18.20;7.90;;;;;;;;;;5015037;28;20159;-63
2021/11/05 06:54:10;;;;;;;19.03;7.77;;;;;;;;;;5012420;28;20169;-61
2021/11/05 06:56:35;;;;;;;20.50;10.70;;;;;;;;;;5012768;28;20566;-72
2021/11/05 06:59:01;;;;;;;17.27;9.07;;;;;;;;;;5015005;28;20291;-68
2021/11/05 07:01:27;;;;;;;15.97;7.80;;;;;;;;;;5017216;28;20621;-65
2021/11/05 07:03:54;;;;;;;13.17;8.60;;;;;;;;;;5012759;28;20459;-63
2021/11/05 07:06:19;;;;;;;17.53;7.73;;;;;;;;;;5013915;28;20146;-63
2021/11/05 07:08:44;;;;;;;19.73;7.90;;;;;;;;;;5019466;28;20774;-64
2021/11/05 07:11:09;;;;;;;16.53;8.53;;;;;;;;;;5027996;28;20196;-68
2021/11/05 07:13:35;;;;;;;24.73;7.70;;;;;;;;;;5032195;28;20172;-68
2021/11/05 07:16:00;;;;;;;16.77;7.67;;;;;;;;;;5032638;28;20173;-68
2021/11/05 07:18:26;;;;;;;16.40;6.93;;;;;;;;;;5011958;28;20256;-62
2021/11/05 07:20:51;;;;;;;14.73;7.87;;;;;;;;;;5012797;28;20221;-74
2021/11/05 07:23:18;;;;;;;14.80;6.87;;;;;;;;;;5016031;28;20171;-67
2021/11/05 07:25:43;;;;;;;9.27;6.50;;;;;;;;;;5012404;28;20155;-75
2021/11/05 07:28:09;;;;;;;13.77;6.50;;;;;;;;;;5012071;28;20444;-70
2021/11/05 07:30:34;;;;;;;14.07;6.80;;;;;;;;;;5013001;28;20255;-69
2021/11/05 07:33:00;;;;;;;12.93;7.17;;;;;;;;;;5012995;28;20197;-66
2021/11/05 07:35:25;;;;;;;17.33;7.33;;;;;;;;;;5017266;28;20177;-63
2021/11/05 07:37:51;;;;;;;17.40;7.73;;;;;;;;;;5016046;28;20214;-63
2021/11/05 07:40:17;;;;;;;15.17;8.33;;;;;;;;;;5013904;28;20568;-66
2021/11/05 07:42:44;;;;;;;11.83;6.60;;;;;;;;;;5016064;28;20161;-65
2021/11/05 07:45:10;;;;;;;15.37;7.00;;;;;;;;;;5011976;28;20390;-63
2021/11/05 07:47:35;;;;;;;21.17;8.63;;;;;;;;;;5012341;28;20397;-63
2021/11/05 07:50:03;;;;;;;14.80;7.67;;;;;;;;;;5012399;28;20386;-62
2021/11/05 07:52:28;;;;;;;12.43;7.77;;;;;;;;;;5019293;28;20158;-60
2021/11/05 07:54:54;;;;;;;14.63;7.37;;;;;;;;;;5025730;28;20411;-65
2021/11/05 07:57:19;;;;;;;14.23;6.60;;;;;;;;;;5022864;28;20172;-72
2021/11/05 07:59:44;;;;;;;16.33;7.50;;;;;;;;;;5023158;28;20166;-66
2021/11/05 08:02:10;;;;;;;10.13;5.60;;;;;;;;;;5030515;28;20233;-64
2021/11/05 08:04:35;;;;;;;8.57;4.83;;;;;;;;;;5015031;28;20173;-71
2021/11/05 08:07:01;;;;;;;21.10;6.50;;;;;;;;;;5018032;28;20154;-71
2021/11/05 08:09:26;;;;;;;9.93;5.90;;;;;;;;;;5025631;28;20154;-67
2021/11/05 08:11:51;;;;;;;12.43;5.97;;;;;;;;;;5022477;28;20154;-67
2021/11/05 08:14:17;;;;;;;11.73;6.47;;;;;;;;;;5017750;28;20224;-67
2021/11/05 08:16:42;;;;;;;16.50;7.03;;;;;;;;;;5025093;28;20656;-70
2021/11/05 08:19:07;;;;;;;16.43;8.20;;;;;;;;;;5030067;28;20291;-69
2021/11/05 08:21:33;;;;;;;17.47;7.33;;;;;;;;;;5031138;28;20260;-69
2021/11/05 08:23:58;;;;;;;12.90;7.00;;;;;;;;;;5031474;28;20157;-67
2021/11/05 08:26:24;;;;;;;13.50;7.50;;;;;;;;;;5018017;28;20180;-67
2021/11/05 08:28:50;;;;;;;19.10;11.17;;;;;;;;;;5016380;28;20166;-68
2021/11/05 08:31:16;;;;;;;19.87;6.80;;;;;;;;;;5012381;28;20417;-69
2021/11/05 08:33:41;;;;;;;16.47;6.30;;;;;;;;;;5011164;28;20177;-68
2021/11/05 08:36:08;;;;;;;15.23;7.33;;;;;;;;;;5024781;28;20406;-65
2021/11/05 08:38:33;;;;;;;15.67;7.50;;;;;;;;;;5019246;28;20229;-69
2021/11/05 08:40:59;;;;;;;14.30;6.83;;;;;;;;;;5031357;28;20392;-70
2021/11/05 08:43:29;;;;;;;18.03;6.90;;;;;;;;;;5030535;28;20165;-65
2021/11/05 08:45:54;;;;;;;11.17;6.47;;;;;;;;;;5031005;28;20157;-69
2021/11/05 08:48:19;;;;;;;13.73;6.80;;;;;;;;;;5030132;28;20826;-67
2021/11/05 08:50:45;;;;;;;26.37;19.73;;;;;;;;;;5029398;28;20739;-75
2021/11/05 08:53:10;;;;;;;14.83;6.40;;;;;;;;;;5027231;28;20174;-68
2021/11/05 08:55:38;;;;;;;22.37;8.00;;;;;;;;;;5030272;28;20162;-65
2021/11/05 08:58:03;;;;;;;15.13;7.03;;;;;;;;;;5030659;28;20704;-71
2021/11/05 09:00:32;;;;;;;15.00;6.77;;;;;;;;;;5030614;28;20376;-68
2021/11/05 09:02:58;;;;;;;10.80;6.00;;;;;;;;;;5031041;28;20157;-70
2021/11/05 09:05:23;;;;;;;12.83;6.90;;;;;;;;;;5026689;28;20403;-66
2021/11/05 09:07:48;;;;;;;14.67;7.20;;;;;;;;;;5030854;28;20636;-76
2021/11/05 09:10:14;;;;;;;12.07;6.97;;;;;;;;;;5027883;28;20253;-70
2021/11/05 09:12:40;;;;;;;14.40;5.90;;;;;;;;;;5031039;28;20157;-71
2021/11/05 09:15:06;;;;;;;12.93;6.57;;;;;;;;;;5021160;28;20189;-69
2021/11/05 09:17:32;;;;;;;16.40;7.30;;;;;;;;;;5011139;28;20289;-72
2021/11/05 09:19:57;;;;;;;10.27;6.23;;;;;;;;;;5011072;28;20417;-73
2021/11/05 09:22:23;;;;;;;9.73;5.60;;;;;;;;;;5028384;28;20555;-67
2021/11/05 09:24:48;;;;;;;9.47;4.90;;;;;;;;;;5029522;28;20624;-70
2021/11/05 09:27:14;;;;;;;10.70;5.23;;;;;;;;;;5030234;28;20172;-68
2021/11/05 09:29:39;;;;;;;10.63;5.93;;;;;;;;;;5030360;28;20201;-71
2021/11/05 09:32:04;;;;;;;10.87;5.80;;;;;;;;;;5030494;28;20150;-70
2021/11/05 09:34:31;;;;;;;11.10;5.50;;;;;;;;;;5042117;28;20174;-66
2021/11/05 09:37:01;;;;;;;8.73;5.03;;;;;;;;;;5030510;28;20149;-70
2021/11/05 09:39:26;;;;;;;10.37;4.70;;;;;;;;;;5029418;28;20451;-67
2021/11/05 09:41:51;;;;;;;12.10;6.07;;;;;;;;;;5045304;28;20776;-68
2021/11/05 09:44:17;;;;;;;9.33;6.37;;;;;;;;;;5036590;28;20249;-64
2021/11/05 09:46:43;;;;;;;9.07;5.27;;;;;;;;;;5020833;28;20165;-64
2021/11/05 09:49:08;;;;;;;12.83;5.17;;;;;;;;;;5026966;28;20428;-67
2021/11/05 09:51:34;;;;;;;8.83;5.57;;;;;;;;;;5034045;28;20146;-65
2021/11/05 09:54:03;;;;;;;13.30;5.57;;;;;;;;;;5033430;28;20165;-71
2021/11/05 09:56:28;;;;;;;10.07;5.80;;;;;;;;;;5021243;28;20166;-66
2021/11/05 09:58:54;;;;;;;11.00;5.90;;;;;;;;;;5029328;28;20954;-66
2021/11/05 10:01:19;;;;;;;11.50;5.70;;;;;;;;;;5032202;28;20162;-65
2021/11/05 10:03:44;;;;;;;14.37;6.83;;;;;;;;;;5030023;28;20173;-68
2021/11/05 10:06:12;;;;;;;11.03;5.50;;;;;;;;;;5033126;28;20193;-62
2021/11/05 10:08:37;;;;;;;11.17;5.17;;;;;;;;;;5033575;28;20241;-65
2021/11/05 10:11:22;;;;;;;15.57;5.67;;;;;;;;;;5033812;28;20431;-66
2021/11/05 10:13:48;;;;;;;10.13;5.90;;;;;;;;;;5023020;28;20220;-69
2021/11/05 10:16:13;;;;;;;9.90;5.93;;;;;;;;;;5015094;28;20394;-68
2021/11/05 10:18:52;;;;;;;9.70;5.07;;;;;;;;;;5014038;28;20194;-69
2021/11/05 10:21:17;;;;;;;11.13;6.10;;;;;;;;;;5020431;28;20926;-72
2021/11/05 10:23:43;;;;;;;10.83;5.73;;;;;;;;;;5031788;28;20504;-63
2021/11/05 10:26:19;;;;;;;8.93;5.23;;;;;;;;;;5034016;28;20539;-68
2021/11/05 10:28:44;;;;;;;16.93;5.10;;;;;;;;;;5032858;28;20874;-70
2021/11/05 10:31:10;;;;;;;13.30;6.00;;;;;;;;;;5033533;28;20405;-68
2021/11/05 10:33:40;;;;;;;11.27;5.40;;;;;;;;;;5033000;28;20530;-66
2021/11/05 10:36:07;;;;;;;15.60;5.93;;;;;;;;;;5032929;28;20467;-67
2021/11/05 10:38:35;;;;;;;11.73;5.50;;;;;;;;;;5033168;28;21091;-66
2021/11/05 10:41:01;;;;;;;11.60;6.60;;;;;;;;;;5028896;28;20394;-66
2021/11/05 10:43:32;;;;;;;9.80;5.90;;;;;;;;;;5013647;28;20433;-65
2021/11/05 10:45:57;;;;;;;9.50;4.90;;;;;;;;;;5019405;28;20377;-65
2021/11/05 10:48:23;;;;;;;9.63;4.87;;;;;;;;;;5030600;28;20397;-70
2021/11/05 10:50:53;;;;;;;8.20;4.60;;;;;;;;;;5016113;28;20637;-63
2021/11/05 10:53:21;;;;;;;10.33;4.80;;;;;;;;;;5017855;28;20774;-67
2021/11/05 10:55:47;;;;;;;13.50;4.93;;;;;;;;;;5032514;28;20539;-66
2021/11/05 10:58:42;;;;;;;8.00;5.20;;;;;;;;;;5029242;28;20523;-63
2021/11/05 11:01:12;;;;;;;14.67;6.60;;;;;;;;;;5031217;28;20417;-68
2021/11/05 11:03:38;;;;;;;16.43;7.20;;;;;;;;;;5031514;28;20919;-69
2021/11/05 11:06:06;;;;;;;9.47;5.47;;;;;;;;;;5032037;28;20495;-66
2021/11/05 11:08:34;;;;;;;11.70;5.50;;;;;;;;;;5030817;28;20420;-65
2021/11/05 11:11:12;;;;;;;16.07;5.23;;;;;;;;;;5031598;28;20425;-70
2021/11/05 11:13:38;;;;;;;11.10;5.53;;;;;;;;;;5027852;28;20396;-66
2021/11/05 11:16:07;;;;;;;10.03;6.00;;;;;;;;;;5032189;28;20404;-67
2021/11/05 11:18:35;;;;;;;11.07;6.60;;;;;;;;;;5030893;28;20578;-69
2021/11/05 11:21:09;;;;;;;15.33;6.50;;;;;;;;;;5032266;28;20419;-67
2021/11/05 11:23:34;;;;;;;9.70;5.50;;;;;;;;;;5022223;28;20796;-68
2021/11/05 11:26:00;;;;;;;10.30;5.93;;;;;;;;;;5013114;28;20397;-68
2021/11/05 11:28:25;;;;;;;10.00;5.67;;;;;;;;;;5029925;28;20162;-69
2021/11/05 11:30:51;;;;;;;11.20;5.70;;;;;;;;;;5032657;28;20173;-68
2021/11/05 11:33:17;;;;;;;13.07;6.40;;;;;;;;;;5030716;28;20532;-67
2021/11/05 11:35:43;;;;;;;9.50;6.03;;;;;;;;;;5032361;28;20208;-70
2021/11/05 11:38:11;;;;;;;17.00;9.57;;;;;;;;;;5045387;28;20300;-70
2021/11/05 11:40:37;;;;;;;14.27;6.23;;;;;;;;;;5031584;28;20383;-70
2021/11/05 11:43:02;;;;;;;12.77;6.37;;;;;;;;;;5031832;28;20404;-69
2021/11/05 11:45:27;;;;;;;12.17;7.20;;;;;;;;;;5025220;28;20154;-62
2021/11/05 11:47:55;;;;;;;13.70;5.83;;;;;;;;;;5022278;28;20227;-63
2021/11/05 11:50:22;;;;;;;15.93;12.60;;;;;;;;;;5031131;28;20166;-62
2021/11/05 11:52:59;;;;;;;15.53;8.33;;;;;;;;;;5012762;28;20801;-64
2021/11/05 11:55:24;;;;;;;10.50;6.27;;;;;;;;;;5029037;28;20396;-63
2021/11/05 11:58:07;;;;;;;11.60;6.00;;;;;;;;;;5026572;28;20510;-63
2021/11/05 12:00:32;;;;;;;8.83;5.27;;;;;;;;;;5031899;28;20158;-72
2021/11/05 12:03:02;;;;;;;10.73;5.90;;;;;;;;;;5032020;28;20397;-68
2021/11/05 12:05:30;;;;;;;10.43;5.60;;;;;;;;;;5030876;28;20228;-66
2021/11/05 12:08:14;;;;;;;13.20;5.87;;;;;;;;;;5031923;28;20847;-68
2021/11/05 12:10:40;;;;;;;11.53;6.80;;;;;;;;;;5031112;28;20810;-63
2021/11/05 12:13:24;;;;;;;11.00;6.53;;;;;;;;;;5031032;28;20423;-65
2021/11/05 12:16:21;;;;;;;17.43;6.50;;;;;;;;;;5011203;28;20158;-64
2021/11/05 12:18:59;;;;;;;14.43;7.63;;;;;;;;;;5011785;28;20571;-65
2021/11/05 12:21:29;;;;;;;13.00;6.30;;;;;;;;;;5021697;28;20444;-71
2021/11/05 12:24:13;;;;;;;19.70;8.73;;;;;;;;;;5020058;28;20408;-68
2021/11/05 12:26:44;;;;;;;12.77;7.17;;;;;;;;;;5031409;28;20408;-66
2021/11/05 12:29:10;;;;;;;11.03;6.60;;;;;;;;;;5017434;28;20420;-76
2021/11/05 12:31:37;;;;;;;13.50;7.40;;;;;;;;;;5011483;28;20424;-72
2021/11/05 12:34:21;;;;;;;11.70;7.20;;;;;;;;;;5026722;28;20166;-69
2021/11/05 12:36:48;;;;;;;12.17;8.30;;;;;;;;;;5029916;28;20781;-71
2021/11/05 12:39:13;;;;;;;12.33;7.90;;;;;;;;;;5030125;28;20468;-70
2021/11/05 12:41:59;;;;;;;12.93;7.20;;;;;;;;;;5019915;28;20451;-72
2021/11/05 12:44:26;;;;;;;11.90;7.40;;;;;;;;;;5030194;28;20165;-72
2021/11/05 12:46:52;;;;;;;15.40;8.97;;;;;;;;;;5030411;28;20392;-72
2021/11/05 12:49:18;;;;;;;18.83;8.00;;;;;;;;;;5029466;28;20428;-68
2021/11/05 12:51:45;;;;;;;15.50;7.93;;;;;;;;;;5016647;28;20617;-71
2021/11/05 12:54:15;;;;;;;16.20;8.33;;;;;;;;;;5018228;28;20487;-70
2021/11/05 12:56:41;;;;;;;20.20;8.60;;;;;;;;;;5026865;28;20927;-71
2021/11/05 12:59:11;;;;;;;12.13;7.53;;;;;;;;;;5010949;28;20449;-69
2021/11/05 13:01:37;;;;;;;12.17;7.40;;;;;;;;;;5021119;28;20478;-68
2021/11/05 13:04:22;;;;;;;12.17;7.60;;;;;;;;;;5031137;28;20472;-69
2021/11/05 13:06:55;;;;;;;15.60;8.20;;;;;;;;;;5029757;28;20853;-69
2021/11/05 13:09:30;;;;;;;23.40;10.10;;;;;;;;;;5019976;28;20523;-68
2021/11/05 13:12:06;;;;;;;25.23;15.30;;;;;;;;;;5035739;28;20426;-69
2021/11/05 13:14:34;;;;;;;18.03;9.30;;;;;;;;;;5021407;28;20408;-66
2021/11/05 13:17:00;;;;;;;16.33;9.83;;;;;;;;;;5030514;28;20459;-69
2021/11/05 13:19:25;;;;;;;13.30;7.80;;;;;;;;;;5019076;28;20468;-67
2021/11/05 13:21:59;;;;;;;12.73;8.33;;;;;;;;;;5017851;28;20420;-67
2021/11/05 13:24:24;;;;;;;19.33;8.80;;;;;;;;;;5017489;28;20182;-63
2021/11/05 13:26:50;;;;;;;17.70;9.30;;;;;;;;;;5019254;28;20468;-70
2021/11/05 13:29:25;;;;;;;19.13;8.70;;;;;;;;;;5029907;28;20189;-63
2021/11/05 13:31:52;;;;;;;16.40;8.63;;;;;;;;;;5029687;28;20165;-63
2021/11/05 13:34:18;;;;;;;14.40;9.37;;;;;;;;;;5030199;28;20902;-64
2021/11/05 13:36:43;;;;;;;14.27;8.70;;;;;;;;;;5029747;28;20412;-70
2021/11/05 13:39:13;;;;;;;20.03;9.33;;;;;;;;;;5028336;28;20272;-70
2021/11/05 13:41:39;;;;;;;18.40;9.57;;;;;;;;;;5029274;28;20162;-68
2021/11/05 13:44:04;;;;;;;22.97;11.87;;;;;;;;;;5029861;28;20397;-71
2021/11/05 13:46:30;;;;;;;20.33;9.73;;;;;;;;;;5029933;28;20165;-66
2021/11/05 13:48:56;;;;;;;17.13;10.63;;;;;;;;;;5029793;28;20170;-68
2021/11/05 13:51:27;;;;;;;15.87;10.60;;;;;;;;;;5027158;28;20918;-66
2021/11/05 13:53:58;;;;;;;16.53;10.20;;;;;;;;;;5023634;28;20416;-68
2021/11/05 13:56:29;;;;;;;27.27;12.07;;;;;;;;;;5023155;28;20930;-62
2021/11/05 13:59:00;;;;;;;18.13;10.33;;;;;;;;;;5028063;28;20460;-69
2021/11/05 14:01:27;;;;;;;17.97;9.87;;;;;;;;;;5010334;28;20412;-64
2021/11/05 14:03:54;;;;;;;19.67;11.90;;;;;;;;;;5013489;28;20448;-67
2021/11/05 14:06:20;;;;;;;26.10;12.80;;;;;;;;;;5030004;28;20871;-69
2021/11/05 14:08:49;;;;;;;18.87;11.27;;;;;;;;;;5029928;28;20388;-67
2021/11/05 14:11:24;;;;;;;18.20;9.77;;;;;;;;;;5027488;28;20257;-68
2021/11/05 14:13:49;;;;;;;17.77;11.40;;;;;;;;;;5029060;28;20902;-66
2021/11/05 14:16:14;;;;;;;20.60;10.83;;;;;;;;;;5024111;28;20406;-66
2021/11/05 14:18:40;;;;;;;20.17;10.60;;;;;;;;;;5019823;28;20193;-67
2021/11/05 14:21:19;;;;;;;21.53;11.83;;;;;;;;;;5028382;28;20240;-63
2021/11/05 14:23:45;;;;;;;16.87;10.50;;;;;;;;;;5029519;28;20180;-63